Time;durP1;ratioP1;P1;durP2;ratioP2;P2;SDS_P1;SDS_P2;PMS_P1;PMS_P2;Temp;Humidity;BMP_temperature;BMP_pressure;BME280_temperature;BME280_humidity;BME280_pressure;Samples;Min_cycle;Max_cycle;Signal;HPM_P1;HPM_P2
2020/12/09 00:00:11;;;;;;;56.02;29.57;;;;;;;-0.01;75.69;100124.87;126610;1098;26405;-78
2020/12/09 00:02:57;;;;;;;43.93;26.13;;;;;;;-0.02;75.81;100129.40;126511;1098;23336;-77
2020/12/09 00:05:25;;;;;;;49.63;27.30;;;;;;;-0.01;75.84;100132.92;126393;1098;23346;-79
2020/12/09 00:07:53;;;;;;;52.98;30.60;;;;;;;0.00;75.69;100123.91;126493;1098;26893;-79
2020/12/09 00:10:21;;;;;;;50.65;27.15;;;;;;;-0.01;75.56;100124.87;126596;1098;23463;-76
2020/12/09 00:12:50;;;;;;;47.80;30.13;;;;;;;0.01;75.70;100128.28;126655;1098;23512;-76
2020/12/09 00:15:19;;;;;;;44.33;23.38;;;;;;;0.02;75.28;100123.77;126756;1098;23366;-77
2020/12/09 00:17:47;;;;;;;38.98;24.75;;;;;;;0.01;75.78;100122.92;126679;1098;23332;-77
2020/12/09 00:20:16;;;;;;;49.85;28.40;;;;;;;0.01;75.88;100127.44;126672;1098;26756;-77
2020/12/09 00:22:44;;;;;;;48.20;26.70;;;;;;;0.02;75.45;100134.49;126680;1098;23403;-76
2020/12/09 00:25:12;;;;;;;52.98;28.67;;;;;;;0.01;75.91;100128.28;126700;1099;23382;-78
2020/12/09 00:27:40;;;;;;;44.20;26.02;;;;;;;0.01;75.82;100141.69;126562;1098;23427;-77
2020/12/09 00:30:10;;;;;;;50.90;28.50;;;;;;;0.03;75.99;100142.42;126536;1099;23383;-76
2020/12/09 00:32:38;;;;;;;44.38;25.40;;;;;;;0.02;75.59;100137.17;126626;1098;23332;-77
2020/12/09 00:35:08;;;;;;;49.67;27.95;;;;;;;0.02;75.81;100140.70;126624;1098;25159;-77
2020/12/09 00:37:36;;;;;;;48.65;27.62;;;;;;;0.03;75.54;100146.94;126667;1098;23382;-76
2020/12/09 00:40:07;;;;;;;44.70;26.62;;;;;;;0.04;75.48;100148.63;126663;1099;23546;-76
2020/12/09 00:42:35;;;;;;;45.92;25.62;;;;;;;0.03;75.82;100150.47;126767;1098;23327;-76
2020/12/09 00:45:07;;;;;;;53.30;26.02;;;;;;;0.02;75.69;100154.11;126668;1099;27085;-75
2020/12/09 00:47:40;;;;;;;55.83;28.50;;;;;;;0.02;75.77;100156.79;126684;1098;23396;-76
2020/12/09 00:52:45;;;;;;;53.20;29.20;;;;;;;0.01;75.53;100155.10;126667;1098;23372;-75
2020/12/09 00:55:15;;;;;;;49.27;28.27;;;;;;;0.01;75.59;100147.05;126742;1099;26804;-75
2020/12/09 00:57:46;;;;;;;50.58;28.23;;;;;;;0.00;75.45;100156.09;126715;1099;23326;-76
2020/12/09 01:00:17;;;;;;;46.00;27.35;;;;;;;0.00;75.68;100153.41;126696;1098;23397;-76
2020/12/09 01:02:49;;;;;;;46.73;26.60;;;;;;;0.02;75.55;100158.63;126663;1098;23522;-76
2020/12/09 01:05:18;;;;;;;44.85;25.60;;;;;;;0.03;75.63;100160.34;126743;1098;23333;-76
2020/12/09 01:07:46;;;;;;;50.03;28.03;;;;;;;0.01;75.48;100155.10;126722;1099;23477;-76
2020/12/09 01:10:14;;;;;;;40.85;23.02;;;;;;;0.00;75.68;100158.78;126696;1098;25572;-77
2020/12/09 01:12:43;;;;;;;44.85;26.17;;;;;;;-0.01;75.65;100146.33;126740;1098;23425;-77
2020/12/09 01:15:11;;;;;;;42.95;23.67;;;;;;;0.00;75.59;100145.37;126687;1098;23337;-76
2020/12/09 01:17:39;;;;;;;44.73;27.53;;;;;;;-0.01;75.79;100136.45;126609;1099;23336;-76
2020/12/09 01:20:08;;;;;;;41.18;23.95;;;;;;;-0.01;75.88;100140.97;126729;1098;23328;-76
2020/12/09 01:22:36;;;;;;;38.78;22.80;;;;;;;-0.01;75.45;100135.61;126724;1098;23786;-76
2020/12/09 01:25:04;;;;;;;41.70;25.57;;;;;;;-0.01;75.56;100143.65;126685;1098;23562;-77
2020/12/09 01:27:33;;;;;;;40.10;22.22;;;;;;;0.00;75.42;100148.05;126653;1098;24987;-75
2020/12/09 01:30:01;;;;;;;34.35;21.52;;;;;;;-0.02;75.64;100133.92;126678;1099;23469;-76
2020/12/09 01:32:30;;;;;;;43.10;25.05;;;;;;;-0.03;75.43;100142.93;126692;1098;23336;-76
2020/12/09 01:34:58;;;;;;;32.33;20.43;;;;;;;-0.03;75.72;100134.88;126726;1099;23502;-76
2020/12/09 01:37:26;;;;;;;42.87;23.77;;;;;;;-0.04;75.69;100147.45;126705;1098;23325;-76
2020/12/09 01:39:54;;;;;;;45.53;27.73;;;;;;;-0.04;75.60;100154.65;126657;1099;24843;-76
2020/12/09 01:42:23;;;;;;;40.52;24.60;;;;;;;-0.05;75.62;100151.09;126732;1098;23427;-76
2020/12/09 01:44:51;;;;;;;41.83;25.75;;;;;;;-0.05;75.36;100144.88;126657;1099;23389;-77
2020/12/09 01:47:20;;;;;;;41.60;26.30;;;;;;;-0.06;75.61;100148.56;126629;1098;23368;-77
2020/12/09 01:49:48;;;;;;;42.73;25.88;;;;;;;-0.06;75.87;100148.56;126655;1098;23419;-76
2020/12/09 01:52:18;;;;;;;40.60;24.25;;;;;;;-0.07;75.55;100152.20;126580;1098;23340;-76
2020/12/09 01:54:50;;;;;;;36.15;18.37;;;;;;;-0.07;75.98;100162.94;126675;1098;23382;-76
2020/12/09 01:57:19;;;;;;;40.17;21.15;;;;;;;-0.08;75.41;100150.52;126737;1098;23382;-76
2020/12/09 01:59:47;;;;;;;35.13;22.07;;;;;;;-0.08;75.46;100158.56;126756;1098;23366;-76
2020/12/09 02:02:16;;;;;;;39.95;23.22;;;;;;;-0.09;75.59;100155.01;126705;1098;25543;-76
2020/12/09 02:04:46;;;;;;;42.97;24.97;;;;;;;-0.10;75.58;100149.80;126663;1098;26833;-76
2020/12/09 02:07:15;;;;;;;34.23;21.52;;;;;;;-0.10;75.81;100152.48;126692;1098;26555;-77
2020/12/09 02:09:43;;;;;;;35.15;22.35;;;;;;;-0.11;75.64;100151.60;126643;1098;23344;-77
2020/12/09 02:12:11;;;;;;;38.17;21.87;;;;;;;-0.11;75.67;100151.60;126706;1098;23871;-77
2020/12/09 02:14:39;;;;;;;41.95;23.15;;;;;;;-0.11;75.61;100153.44;126610;1098;23395;-76
2020/12/09 02:17:07;;;;;;;33.25;19.60;;;;;;;-0.11;76.04;100150.76;126626;1098;23391;-76
2020/12/09 02:19:35;;;;;;;42.85;26.20;;;;;;;-0.11;75.70;100156.13;126698;1098;23374;-77
2020/12/09 02:22:12;;;;;;;35.80;21.47;;;;;;;-0.11;75.74;100162.33;126671;1099;23403;-77
2020/12/09 02:24:40;;;;;;;44.45;26.73;;;;;;;-0.11;75.47;100156.13;126770;1098;23385;-77
2020/12/09 02:27:10;;;;;;;31.02;20.17;;;;;;;-0.13;75.73;100140.16;126730;1098;23546;-77
2020/12/09 02:29:38;;;;;;;45.03;25.10;;;;;;;-0.13;75.67;100141.98;126709;1098;23562;-77
2020/12/09 02:32:07;;;;;;;36.10;23.75;;;;;;;-0.15;75.48;100138.58;126639;1098;23393;-76
2020/12/09 02:34:35;;;;;;;28.32;19.23;;;;;;;-0.15;75.63;100143.95;126590;1098;23380;-77
2020/12/09 02:37:03;;;;;;;37.73;24.37;;;;;;;-0.15;75.89;100146.63;126722;1098;25239;-76
2020/12/09 02:39:36;;;;;;;44.03;25.40;;;;;;;-0.16;75.69;100142.26;126707;1098;23418;-76
2020/12/09 02:42:05;;;;;;;35.45;19.12;;;;;;;-0.16;75.65;100152.98;126738;1099;26826;-76
2020/12/09 02:44:33;;;;;;;39.70;22.65;;;;;;;-0.18;75.52;100153.10;126644;1099;23468;-77
2020/12/09 02:47:02;;;;;;;31.52;22.27;;;;;;;-0.18;75.94;100144.22;126745;1099;23340;-77
2020/12/09 02:49:30;;;;;;;36.23;21.57;;;;;;;-0.19;75.84;100145.17;126737;1098;23383;-76
2020/12/09 02:51:58;;;;;;;49.45;26.15;;;;;;;-0.21;75.39;100138.13;126660;1098;23382;-76
2020/12/09 02:54:26;;;;;;;48.73;27.87;;;;;;;-0.22;75.50;100128.37;126742;1099;24391;-77
2020/12/09 02:56:55;;;;;;;41.42;23.75;;;;;;;-0.24;75.53;100141.05;126766;1098;23340;-77
2020/12/09 02:59:24;;;;;;;41.42;26.82;;;;;;;-0.25;75.52;100134.00;126740;1098;23424;-77
2020/12/09 03:01:52;;;;;;;34.20;20.88;;;;;;;-0.26;75.37;100132.28;126713;1098;23328;-77
2020/12/09 03:04:20;;;;;;;39.70;23.55;;;;;;;-0.27;76.04;100132.42;126710;1099;23370;-76
2020/12/09 03:06:48;;;;;;;35.47;23.60;;;;;;;-0.30;75.42;100133.54;126690;1098;23395;-76
2020/12/09 03:09:16;;;;;;;47.05;27.05;;;;;;;-0.32;75.55;100132.81;126725;1098;23323;-76
2020/12/09 03:11:45;;;;;;;40.12;22.02;;;;;;;-0.33;75.91;100124.89;126714;1098;23406;-76
2020/12/09 03:14:13;;;;;;;45.80;27.27;;;;;;;-0.35;76.02;100122.33;126660;1098;23410;-76
2020/12/09 03:16:41;;;;;;;45.70;25.70;;;;;;;-0.37;75.76;100126.97;126771;1099;26500;-76
2020/12/09 03:19:10;;;;;;;43.00;26.23;;;;;;;-0.36;75.67;100127.80;126671;1098;25203;-76
2020/12/09 03:21:40;;;;;;;39.13;22.33;;;;;;;-0.37;75.81;100124.28;126700;1098;23339;-76
2020/12/09 03:24:12;;;;;;;38.53;23.00;;;;;;;-0.39;75.86;100126.23;126680;1098;23328;-77
2020/12/09 03:26:40;;;;;;;37.07;23.57;;;;;;;-0.40;75.72;100123.70;126722;1098;26826;-76
2020/12/09 03:29:09;;;;;;;40.27;27.40;;;;;;;-0.41;76.08;100133.55;126720;1098;23366;-76
2020/12/09 03:31:37;;;;;;;39.60;24.63;;;;;;;-0.43;75.98;100128.34;126703;1098;23328;-76
2020/12/09 03:34:05;;;;;;;40.65;26.42;;;;;;;-0.43;75.77;100125.66;126621;1098;23439;-77
2020/12/09 03:36:33;;;;;;;39.95;26.12;;;;;;;-0.42;76.21;100137.22;126651;1098;23332;-76
2020/12/09 03:39:02;;;;;;;36.73;22.35;;;;;;;-0.43;75.76;100138.19;126709;1098;23387;-76
2020/12/09 03:41:31;;;;;;;40.52;26.00;;;;;;;-0.44;75.75;100140.02;126745;1098;23383;-76
2020/12/09 03:43:59;;;;;;;41.20;25.23;;;;;;;-0.45;75.83;100127.62;126731;1098;23399;-76
2020/12/09 03:46:27;;;;;;;39.03;25.35;;;;;;;-0.44;76.03;100125.78;126688;1098;23382;-75
2020/12/09 03:48:55;;;;;;;43.10;27.55;;;;;;;-0.46;75.78;100120.54;126773;1098;26657;-75
2020/12/09 03:51:23;;;;;;;45.10;27.17;;;;;;;-0.46;75.88;100114.33;126776;1098;23395;-76
2020/12/09 03:53:52;;;;;;;49.90;29.20;;;;;;;-0.48;76.24;100116.29;126726;1098;27876;-76
2020/12/09 03:56:20;;;;;;;47.23;30.65;;;;;;;-0.48;76.15;100129.69;126738;1099;23379;-76
2020/12/09 03:58:48;;;;;;;53.63;32.55;;;;;;;-0.50;76.26;100132.48;126736;1098;23324;-76
2020/12/09 04:01:17;;;;;;;50.10;30.92;;;;;;;-0.48;76.07;100135.05;126674;1098;26526;-77
2020/12/09 04:03:46;;;;;;;46.37;30.52;;;;;;;-0.46;75.84;100138.45;126736;1098;23442;-76
2020/12/09 04:06:14;;;;;;;40.03;24.45;;;;;;;-0.46;76.04;100135.77;126776;1098;23363;-77
2020/12/09 04:08:43;;;;;;;41.58;28.80;;;;;;;-0.46;76.47;100141.13;126766;1098;26476;-76
2020/12/09 04:11:11;;;;;;;58.73;32.03;;;;;;;-0.45;75.91;100142.82;126680;1098;23441;-76
2020/12/09 04:13:39;;;;;;;49.83;31.87;;;;;;;-0.46;76.19;100151.85;126671;1098;23389;-76
2020/12/09 04:16:07;;;;;;;46.15;29.55;;;;;;;-0.44;75.98;100149.90;126749;1098;23363;-77
2020/12/09 04:18:36;;;;;;;41.17;29.33;;;;;;;-0.45;75.86;100142.82;126717;1098;23463;-76
2020/12/09 04:21:04;;;;;;;46.10;26.65;;;;;;;-0.46;76.30;100141.13;126689;1098;23387;-76
2020/12/09 04:23:32;;;;;;;41.53;26.15;;;;;;;-0.47;75.97;100153.69;126663;1098;26814;-75
2020/12/09 04:26:00;;;;;;;43.10;26.63;;;;;;;-0.49;76.22;100144.05;126731;1098;23318;-76
2020/12/09 04:28:28;;;;;;;32.95;20.95;;;;;;;-0.48;75.97;100143.93;126669;1098;26827;-75
2020/12/09 04:30:57;;;;;;;49.30;29.57;;;;;;;-0.49;76.15;100141.36;126703;1098;23392;-76
2020/12/09 04:33:30;;;;;;;50.55;27.35;;;;;;;-0.48;75.99;100146.61;126766;1098;23363;-76
2020/12/09 04:36:03;;;;;;;50.43;30.92;;;;;;;-0.49;76.02;100146.73;126689;1098;23527;-76
2020/12/09 04:38:31;;;;;;;39.98;26.30;;;;;;;-0.50;76.18;100153.92;126719;1098;26402;-76
2020/12/09 04:41:00;;;;;;;40.92;26.62;;;;;;;-0.51;76.51;100143.32;126771;1098;24975;-77
2020/12/09 04:43:32;;;;;;;31.17;20.12;;;;;;;-0.50;76.07;100134.31;126742;1098;25504;-75
2020/12/09 04:46:00;;;;;;;40.52;28.45;;;;;;;-0.51;76.31;100143.32;126751;1098;23651;-76
2020/12/09 04:48:29;;;;;;;36.80;22.50;;;;;;;-0.51;76.54;100135.28;126752;1098;26555;-77
2020/12/09 04:51:28;;;;;;;38.37;23.93;;;;;;;-0.51;76.44;100143.32;126686;1098;26402;-77
2020/12/09 04:53:59;;;;;;;39.70;25.77;;;;;;;-0.52;76.22;100146.98;126772;1098;27780;-77
2020/12/09 04:56:40;;;;;;;38.00;23.40;;;;;;;-0.53;76.07;100151.50;126687;1098;23558;-76
2020/12/09 04:59:16;;;;;;;42.10;24.98;;;;;;;-0.54;75.93;100146.27;126633;1098;23391;-76
2020/12/09 05:02:15;;;;;;;42.60;26.10;;;;;;;-0.54;76.06;100148.94;126591;1098;26493;-77
2020/12/09 05:04:43;;;;;;;35.58;22.67;;;;;;;-0.54;76.14;100148.94;126144;1102;23411;-77
2020/12/09 05:07:12;;;;;;;47.20;26.17;;;;;;;-0.55;76.26;100148.09;126139;1101;23739;-77
2020/12/09 05:09:45;;;;;;;40.98;26.27;;;;;;;-0.57;76.50;100142.02;126135;1101;26990;-77
2020/12/09 05:12:17;;;;;;;36.83;23.25;;;;;;;-0.55;76.03;100152.61;126175;1102;23344;-77
2020/12/09 05:14:49;;;;;;;;;;;;;;;-0.57;75.76;100154.56;126204;1102;23407;-77
2020/12/09 05:17:21;;;;;;;54.97;31.17;;;;;;;-0.60;76.59;100161.00;126168;1102;21494;-77
2020/12/09 05:19:49;;;;;;;58.52;32.73;;;;;;;-0.60;76.07;100157.47;126140;1102;25001;-77
2020/12/09 05:22:21;;;;;;;54.20;28.40;;;;;;;-0.58;75.99;100160.88;126204;1101;23353;-76
2020/12/09 05:24:49;;;;;;;62.05;32.35;;;;;;;-0.60;76.36;100161.00;126197;1101;23552;-76
2020/12/09 05:27:18;;;;;;;43.50;24.20;;;;;;;-0.60;75.94;100163.68;126138;1102;23495;-77
2020/12/09 05:29:50;;;;;;;45.23;27.95;;;;;;;-0.62;76.42;100169.19;126183;1101;23399;-77
2020/12/09 05:32:18;;;;;;;54.58;28.95;;;;;;;-0.62;76.53;100173.66;126220;1102;23462;-77
2020/12/09 05:34:46;;;;;;;54.88;30.65;;;;;;;-0.61;76.36;100167.34;126200;1101;23414;-78
2020/12/09 05:37:15;;;;;;;49.27;26.15;;;;;;;-0.63;75.86;100169.30;126182;1101;23454;-77
2020/12/09 05:39:53;;;;;;;43.83;25.97;;;;;;;-0.63;75.92;100167.47;126115;1101;23452;-77
2020/12/09 05:42:24;;;;;;;49.27;25.88;;;;;;;-0.64;76.13;100171.13;126536;1099;23423;-77
2020/12/09 05:44:52;;;;;;;49.48;28.52;;;;;;;-0.60;76.28;100176.23;126676;1098;23334;-76
2020/12/09 05:47:21;;;;;;;50.17;25.43;;;;;;;-0.55;76.29;100176.73;126259;1099;24805;-77
2020/12/09 05:49:50;;;;;;;44.60;28.50;;;;;;;-0.54;76.70;100176.58;126760;1098;23396;-76
2020/12/09 05:52:21;;;;;;;57.93;27.63;;;;;;;-0.51;76.45;100180.83;126672;1099;23399;-77
2020/12/09 05:54:53;;;;;;;49.60;27.55;;;;;;;-0.48;76.49;100180.60;126468;1098;23336;-77
2020/12/09 05:57:26;;;;;;;39.20;24.32;;;;;;;-0.44;76.46;100182.06;126412;1098;23382;-77
2020/12/09 05:59:56;;;;;;;47.08;26.87;;;;;;;-0.43;76.40;100173.91;126720;1098;23441;-77
2020/12/09 06:02:29;;;;;;;57.10;29.27;;;;;;;-0.42;76.34;100170.23;126742;1098;26811;-75
2020/12/09 06:05:01;;;;;;;55.37;31.13;;;;;;;-0.39;76.17;100185.20;126629;1098;23346;-77
2020/12/09 06:07:32;;;;;;;45.45;26.33;;;;;;;-0.38;76.24;100184.24;126657;1098;23395;-76
2020/12/09 06:10:16;;;;;;;48.25;27.87;;;;;;;-0.36;76.32;100182.29;126722;1098;26836;-78
2020/12/09 06:13:00;;;;;;;51.30;30.15;;;;;;;-0.34;76.21;100177.66;126694;1098;23536;-76
2020/12/09 06:15:32;;;;;;;52.20;29.10;;;;;;;-0.33;76.12;100184.70;126294;1099;23446;-76
2020/12/09 06:18:02;;;;;;;64.37;30.25;;;;;;;-0.32;76.56;100186.42;126713;1098;25099;-74
2020/12/09 06:20:33;;;;;;;53.55;31.50;;;;;;;-0.29;76.48;100188.84;126773;1099;23329;-75
2020/12/09 06:23:09;;;;;;;47.58;29.05;;;;;;;-0.27;76.37;100194.08;126350;1098;23329;-75
2020/12/09 06:25:38;;;;;;;63.73;32.93;;;;;;;-0.25;76.30;100192.98;126724;1099;23394;-75
2020/12/09 06:28:12;;;;;;;61.55;31.93;;;;;;;-0.23;76.19;100187.50;126816;1098;23349;-75
2020/12/09 06:30:41;;;;;;;45.55;28.42;;;;;;;-0.19;76.50;100190.75;126661;1098;23328;-76
2020/12/09 06:33:10;;;;;;;54.05;28.02;;;;;;;-0.18;76.10;100203.20;126693;1098;23390;-75
2020/12/09 06:35:39;;;;;;;60.90;33.45;;;;;;;-0.16;76.62;100195.88;126672;1098;23441;-75
2020/12/09 06:38:08;;;;;;;57.20;32.30;;;;;;;-0.14;76.24;100200.13;126705;1098;23403;-74
2020/12/09 06:41:05;;;;;;;65.13;35.10;;;;;;;-0.10;76.47;100206.11;126779;1098;23319;-74
2020/12/09 06:43:33;;;;;;;70.67;37.40;;;;;;;-0.07;76.54;100211.20;126799;1098;23429;-75
2020/12/09 06:46:02;;;;;;;73.73;36.00;;;;;;;-0.03;76.67;100218.02;126686;1098;23332;-74
2020/12/09 06:48:38;;;;;;;75.87;40.10;;;;;;;0.04;76.59;100212.99;126774;1098;23394;-75
2020/12/09 06:51:40;;;;;;;60.30;33.78;;;;;;;0.06;76.19;100222.61;126838;1098;23428;-75
2020/12/09 06:54:13;;;;;;;74.20;36.67;;;;;;;0.10;76.19;100232.11;126540;1098;25038;-76
2020/12/09 06:56:43;;;;;;;62.10;32.98;;;;;;;0.13;76.51;100228.34;126488;1098;27241;-75
2020/12/09 06:59:29;;;;;;;68.60;39.48;;;;;;;0.17;76.18;100219.03;126488;1098;26529;-75
2020/12/09 07:02:00;;;;;;;55.17;33.78;;;;;;;0.19;76.41;100215.27;126465;1099;23469;-75
2020/12/09 07:04:53;;;;;;;53.95;30.82;;;;;;;0.22;76.35;100210.63;126811;1098;23376;-76
2020/12/09 07:07:39;;;;;;;54.73;30.85;;;;;;;0.22;76.17;100211.47;126773;1098;23390;-75
2020/12/09 07:10:19;;;;;;;58.65;32.80;;;;;;;0.24;76.02;100224.77;126543;1098;23336;-74
2020/12/09 07:13:00;;;;;;;76.62;36.50;;;;;;;0.26;75.93;100214.76;126764;1099;23526;-78
2020/12/09 07:15:29;;;;;;;57.80;34.27;;;;;;;0.29;76.36;100214.48;126672;1099;23322;-76
2020/12/09 07:17:58;;;;;;;59.03;32.60;;;;;;;0.32;76.17;100222.27;126753;1098;23442;-76
2020/12/09 07:20:26;;;;;;;56.10;31.50;;;;;;;0.35;76.52;100222.02;126629;1098;26507;-76
2020/12/09 07:22:54;;;;;;;60.60;33.23;;;;;;;0.39;76.54;100218.10;126712;1098;26561;-76
2020/12/09 07:25:23;;;;;;;65.20;35.05;;;;;;;0.44;76.24;100218.55;126709;1099;23466;-76
2020/12/09 07:27:51;;;;;;;63.78;33.98;;;;;;;0.46;76.12;100227.33;126724;1098;25607;-75
2020/12/09 07:30:20;;;;;;;57.17;34.23;;;;;;;0.50;76.40;100230.62;126680;1099;23344;-76
2020/12/09 07:32:51;;;;;;;63.45;33.73;;;;;;;0.52;76.36;100231.34;126759;1098;24804;-76
2020/12/09 07:35:19;;;;;;;66.25;35.78;;;;;;;0.55;76.13;100234.59;126873;1099;23411;-75
2020/12/09 07:37:54;;;;;;;53.95;30.02;;;;;;;0.57;76.09;100229.95;126622;1098;26826;-74
2020/12/09 07:40:29;;;;;;;56.88;30.02;;;;;;;0.60;76.08;100237.76;126687;1099;23382;-75
2020/12/09 07:43:10;;;;;;;56.00;29.80;;;;;;;0.61;76.06;100244.81;126703;1098;23328;-74
2020/12/09 07:45:43;;;;;;;52.30;29.80;;;;;;;0.65;76.12;100239.20;126595;1098;23477;-74
2020/12/09 07:48:18;;;;;;;51.20;31.93;;;;;;;0.69;76.21;100237.96;126638;1098;23423;-74
2020/12/09 07:50:51;;;;;;;45.33;26.87;;;;;;;0.72;76.18;100246.59;126853;1098;23385;-74
2020/12/09 07:53:22;;;;;;;52.33;29.55;;;;;;;0.74;76.05;100233.03;126738;1098;28034;-74
2020/12/09 07:55:52;;;;;;;56.83;32.98;;;;;;;0.77;76.14;100233.64;126672;1098;26433;-74
2020/12/09 07:58:23;;;;;;;55.30;31.23;;;;;;;0.81;76.03;100226.14;126687;1099;23352;-75
2020/12/09 08:00:52;;;;;;;51.85;30.68;;;;;;;0.83;76.02;100226.87;126707;1099;23393;-75
2020/12/09 08:03:27;;;;;;;85.30;40.23;;;;;;;0.84;75.89;100230.42;126784;1098;26405;-74
2020/12/09 08:05:56;;;;;;;147.47;80.70;;;;;;;0.85;76.14;100240.17;126810;1098;23434;-73
2020/12/09 08:08:27;;;;;;;206.60;105.47;;;;;;;0.85;75.97;100240.17;126751;1098;23392;-74
2020/12/09 08:11:07;;;;;;;69.25;45.10;;;;;;;0.85;75.86;100230.27;126773;1098;23336;-74
2020/12/09 08:13:35;;;;;;;71.28;39.25;;;;;;;0.86;75.95;100237.36;126806;1098;23513;-74
2020/12/09 08:16:07;;;;;;;58.55;33.67;;;;;;;0.89;75.99;100237.09;126645;1098;23417;-74
2020/12/09 08:18:36;;;;;;;44.00;27.77;;;;;;;0.90;75.67;100249.55;126790;1098;26924;-73
2020/12/09 08:21:05;;;;;;;52.33;30.30;;;;;;;0.93;75.63;100238.53;126760;1098;23320;-74
2020/12/09 08:23:51;;;;;;;121.63;69.00;;;;;;;0.93;75.79;100251.95;126670;1098;23382;-76
2020/12/09 08:26:29;;;;;;;83.87;42.33;;;;;;;0.94;75.77;100250.11;126740;1098;23337;-75
2020/12/09 08:29:01;;;;;;;65.72;34.85;;;;;;;0.95;75.86;100241.09;126959;1099;23793;-74
2020/12/09 08:31:29;;;;;;;58.73;31.07;;;;;;;0.95;75.61;100252.67;127865;1099;23328;-74
2020/12/09 08:33:58;;;;;;;56.80;30.68;;;;;;;0.95;75.78;100260.73;126689;1098;23785;-75
2020/12/09 08:36:26;;;;;;;250.20;118.80;;;;;;;0.96;75.84;100248.15;126739;1098;23361;-75
2020/12/09 08:39:00;;;;;;;165.07;75.57;;;;;;;0.97;75.87;100258.77;126809;1098;23546;-74
2020/12/09 08:41:31;;;;;;;68.55;33.55;;;;;;;0.99;75.74;100253.27;126733;1098;23493;-75
2020/12/09 08:44:07;;;;;;;61.70;26.63;;;;;;;1.02;75.70;100266.42;126578;1098;23316;-75
2020/12/09 08:46:35;;;;;;;95.95;41.37;;;;;;;0.98;75.72;100263.17;126688;1098;23339;-75
2020/12/09 08:49:04;;;;;;;66.97;35.00;;;;;;;0.99;75.70;100254.12;126840;1098;23330;-75
2020/12/09 08:51:34;;;;;;;179.53;69.10;;;;;;;1.03;75.71;100264.62;126825;1098;23232;-73
2020/12/09 08:54:07;;;;;;;116.05;51.85;;;;;;;1.05;75.56;100257.28;126750;1098;23379;-73
2020/12/09 08:56:36;;;;;;;87.30;38.85;;;;;;;1.08;75.66;100259.69;126799;1098;27838;-73
2020/12/09 08:59:04;;;;;;;67.00;32.83;;;;;;;1.10;75.83;100260.41;126741;1098;23420;-76
2020/12/09 09:01:36;;;;;;;53.60;29.37;;;;;;;1.12;75.74;100263.81;126683;1098;23342;-76
2020/12/09 09:04:07;;;;;;;64.72;32.23;;;;;;;1.13;75.80;100257.44;126725;1098;26851;-74
2020/12/09 09:06:35;;;;;;;61.45;30.75;;;;;;;1.13;75.04;100258.31;126701;1098;24933;-75
2020/12/09 09:09:07;;;;;;;49.38;28.55;;;;;;;1.14;75.38;100261.84;126773;1099;23533;-74
2020/12/09 09:11:36;;;;;;;52.83;30.73;;;;;;;1.13;75.33;100258.31;126819;1098;26788;-75
2020/12/09 09:14:05;;;;;;;51.88;28.35;;;;;;;1.13;75.18;100266.38;126718;1098;26715;-76
2020/12/09 09:16:36;;;;;;;49.20;29.23;;;;;;;1.17;75.22;100275.00;126784;1098;23346;-75
2020/12/09 09:19:05;;;;;;;57.50;32.00;;;;;;;1.18;75.56;100276.72;126696;1098;23427;-76
2020/12/09 09:21:34;;;;;;;55.40;29.82;;;;;;;1.17;74.91;100277.69;126666;1098;23379;-75
2020/12/09 09:24:02;;;;;;;56.90;28.15;;;;;;;1.18;75.34;100280.25;126831;1098;23314;-75
2020/12/09 09:26:35;;;;;;;54.48;30.95;;;;;;;1.20;75.54;100283.66;126734;1098;26569;-75
2020/12/09 09:29:04;;;;;;;61.20;32.65;;;;;;;1.23;75.34;100272.62;126632;1098;23324;-75
2020/12/09 09:31:33;;;;;;;55.30;30.08;;;;;;;1.26;75.27;100276.91;126585;1098;23530;-76
2020/12/09 09:34:01;;;;;;;57.27;34.10;;;;;;;1.28;75.38;100280.31;126794;1098;27685;-75
2020/12/09 09:36:32;;;;;;;52.97;31.53;;;;;;;1.28;75.23;100284.81;126700;1098;23328;-76
2020/12/09 09:39:00;;;;;;;64.55;33.30;;;;;;;1.30;75.28;100277.47;126847;1098;27148;-75
2020/12/09 09:41:29;;;;;;;61.15;36.33;;;;;;;1.33;75.33;100272.69;126764;1098;26529;-75
2020/12/09 09:43:57;;;;;;;57.08;31.33;;;;;;;1.35;74.99;100281.47;126692;1098;23516;-75
2020/12/09 09:46:25;;;;;;;53.10;30.43;;;;;;;1.35;74.91;100280.63;126710;1098;23439;-74
2020/12/09 09:48:54;;;;;;;55.88;30.77;;;;;;;1.32;75.12;100276.34;126813;1098;26946;-74
2020/12/09 09:51:22;;;;;;;41.33;25.52;;;;;;;1.31;74.80;100285.41;126682;1099;23325;-75
2020/12/09 09:53:50;;;;;;;43.10;26.52;;;;;;;1.27;74.62;100289.34;126811;1098;24523;-75
2020/12/09 09:56:19;;;;;;;52.37;28.57;;;;;;;1.24;74.93;100270.81;126673;1098;23457;-75
2020/12/09 09:58:47;;;;;;;55.38;31.25;;;;;;;1.24;74.73;100268.13;126756;1098;28033;-75
2020/12/09 10:01:16;;;;;;;57.85;32.80;;;;;;;1.26;74.89;100268.84;126772;1098;23533;-76
2020/12/09 10:03:44;;;;;;;60.67;35.33;;;;;;;1.30;74.98;100272.97;126735;1098;25167;-75
2020/12/09 10:06:13;;;;;;;48.50;27.83;;;;;;;1.34;74.86;100279.75;126810;1098;27784;-75
2020/12/09 10:08:41;;;;;;;55.28;30.85;;;;;;;1.32;74.82;100275.50;126473;1098;23321;-77
2020/12/09 10:11:09;;;;;;;52.30;27.90;;;;;;;1.27;74.50;100273.22;126641;1098;23459;-76
2020/12/09 10:13:38;;;;;;;45.25;28.50;;;;;;;1.22;74.52;100286.22;126580;1098;23574;-75
2020/12/09 10:16:06;;;;;;;63.00;31.70;;;;;;;1.20;74.47;100277.44;126796;1099;23360;-76
2020/12/09 10:18:34;;;;;;;55.73;32.23;;;;;;;1.19;74.35;100275.72;126730;1098;23328;-75
2020/12/09 10:21:03;;;;;;;45.55;25.20;;;;;;;1.19;74.49;100271.19;126774;1098;23382;-75
2020/12/09 10:23:32;;;;;;;41.77;24.32;;;;;;;1.19;74.46;100270.34;126755;1099;27906;-75
2020/12/09 10:26:00;;;;;;;65.52;34.05;;;;;;;1.19;74.71;100264.97;126729;1098;23382;-74
2020/12/09 10:28:28;;;;;;;57.95;31.20;;;;;;;1.17;74.62;100273.19;126761;1098;23786;-75
2020/12/09 10:30:58;;;;;;;70.87;38.28;;;;;;;1.22;74.83;100275.47;126713;1099;23424;-75
2020/12/09 10:33:27;;;;;;;66.45;38.30;;;;;;;1.25;74.71;100269.81;126728;1099;23325;-76
2020/12/09 10:35:55;;;;;;;60.33;34.00;;;;;;;1.29;74.52;100271.25;126791;1098;23403;-75
2020/12/09 10:38:24;;;;;;;60.58;32.93;;;;;;;1.27;74.28;100275.91;126654;1098;23432;-75
2020/12/09 10:40:52;;;;;;;53.92;32.78;;;;;;;1.25;74.35;100275.19;126837;1098;27136;-74
2020/12/09 10:43:20;;;;;;;64.03;37.80;;;;;;;1.23;74.46;100286.06;126653;1099;23864;-77
2020/12/09 10:46:03;;;;;;;47.55;27.42;;;;;;;1.21;74.15;100274.59;126638;1098;26528;-75
2020/12/09 10:48:32;;;;;;;61.28;32.80;;;;;;;1.16;74.01;100267.94;126785;1098;27894;-75
2020/12/09 10:51:04;;;;;;;54.10;26.25;;;;;;;1.13;74.25;100268.19;126759;1098;23431;-74
2020/12/09 10:53:32;;;;;;;56.08;28.70;;;;;;;1.05;73.94;100268.87;126868;1099;26405;-74
2020/12/09 10:56:01;;;;;;;58.10;33.20;;;;;;;1.02;73.82;100255.68;126798;1098;27494;-75
2020/12/09 10:58:30;;;;;;;56.33;34.37;;;;;;;1.03;74.16;100269.98;126887;1098;25181;-76
2020/12/09 11:00:59;;;;;;;59.38;32.03;;;;;;;1.06;74.25;100267.02;126838;1098;23321;-75
2020/12/09 11:03:27;;;;;;;57.30;34.88;;;;;;;1.01;74.01;100265.59;126836;1099;24098;-74
2020/12/09 11:05:56;;;;;;;63.17;34.38;;;;;;;1.01;74.09;100254.00;126781;1099;23395;-74
2020/12/09 11:08:24;;;;;;;54.73;28.90;;;;;;;0.98;74.00;100251.55;126830;1098;24120;-75
2020/12/09 11:10:52;;;;;;;60.30;36.77;;;;;;;0.94;74.02;100256.36;126827;1098;23382;-75
2020/12/09 11:13:20;;;;;;;52.78;33.00;;;;;;;0.91;74.18;100253.92;126842;1098;27803;-74
2020/12/09 11:15:49;;;;;;;57.67;32.67;;;;;;;0.92;74.38;100250.27;126911;1098;23428;-75
2020/12/09 11:18:17;;;;;;;53.45;26.65;;;;;;;0.90;74.02;100259.45;126884;1099;28213;-74
2020/12/09 11:20:45;;;;;;;48.33;31.42;;;;;;;0.88;74.23;100253.36;126845;1098;23395;-74